sensor_id;sensor_type;location;lat;lon;timestamp;P1;durP1;ratioP1;P2;durP2;ratioP2
54139;SDS011;40046;53.254;5.900;2022-09-23T00:02:20;9.93;;;8.48;;
54139;SDS011;40046;53.254;5.900;2022-09-23T00:04:46;11.27;;;9.13;;
54139;SDS011;40046;53.254;5.900;2022-09-23T00:07:12;10.65;;;8.95;;
54139;SDS011;40046;53.254;5.900;2022-09-23T00:09:38;9.10;;;8.07;;
54139;SDS011;40046;53.254;5.900;2022-09-23T00:12:03;10.50;;;8.75;;
54139;SDS011;40046;53.254;5.900;2022-09-23T00:14:30;11.30;;;9.00;;
54139;SDS011;40046;53.254;5.900;2022-09-23T00:16:55;12.90;;;8.88;;
54139;SDS011;40046;53.254;5.900;2022-09-23T00:19:21;11.82;;;8.75;;
54139;SDS011;40046;53.254;5.900;2022-09-23T00:21:47;13.23;;;9.95;;
54139;SDS011;40046;53.254;5.900;2022-09-23T00:24:12;11.65;;;8.73;;
54139;SDS011;40046;53.254;5.900;2022-09-23T00:26:39;15.38;;;10.05;;
54139;SDS011;40046;53.254;5.900;2022-09-23T00:29:06;9.27;;;7.78;;
54139;SDS011;40046;53.254;5.900;2022-09-23T00:31:31;15.65;;;8.95;;
54139;SDS011;40046;53.254;5.900;2022-09-23T00:33:59;11.48;;;9.18;;
54139;SDS011;40046;53.254;5.900;2022-09-23T00:36:25;12.48;;;9.35;;
54139;SDS011;40046;53.254;5.900;2022-09-23T00:38:53;12.70;;;9.48;;
54139;SDS011;40046;53.254;5.900;2022-09-23T00:41:19;11.15;;;9.32;;
54139;SDS011;40046;53.254;5.900;2022-09-23T00:43:47;10.73;;;9.05;;
54139;SDS011;40046;53.254;5.900;2022-09-23T00:46:17;15.02;;;10.18;;
54139;SDS011;40046;53.254;5.900;2022-09-23T00:49:02;14.63;;;10.90;;
54139;SDS011;40046;53.254;5.900;2022-09-23T00:51:36;14.95;;;9.02;;
54139;SDS011;40046;53.254;5.900;2022-09-23T00:54:07;11.65;;;9.82;;
54139;SDS011;40046;53.254;5.900;2022-09-23T00:56:34;12.75;;;9.20;;
54139;SDS011;40046;53.254;5.900;2022-09-23T00:59:02;11.13;;;10.02;;
54139;SDS011;40046;53.254;5.900;2022-09-23T01:01:30;11.73;;;9.98;;
54139;SDS011;40046;53.254;5.900;2022-09-23T01:03:56;11.63;;;9.98;;
54139;SDS011;40046;53.254;5.900;2022-09-23T01:06:22;10.30;;;9.20;;
54139;SDS011;40046;53.254;5.900;2022-09-23T01:08:48;11.73;;;9.55;;
54139;SDS011;40046;53.254;5.900;2022-09-23T01:14:47;12.30;;;9.40;;
54139;SDS011;40046;53.254;5.900;2022-09-23T01:20:21;14.85;;;10.45;;
54139;SDS011;40046;53.254;5.900;2022-09-23T01:25:21;12.20;;;9.85;;
54139;SDS011;40046;53.254;5.900;2022-09-23T01:34:17;12.85;;;11.48;;
54139;SDS011;40046;53.254;5.900;2022-09-23T01:36:52;12.25;;;10.80;;
54139;SDS011;40046;53.254;5.900;2022-09-23T01:39:22;13.20;;;10.10;;
54139;SDS011;40046;53.254;5.900;2022-09-23T01:42:15;11.50;;;10.10;;
54139;SDS011;40046;53.254;5.900;2022-09-23T01:47:33;16.23;;;10.52;;
54139;SDS011;40046;53.254;5.900;2022-09-23T01:50:03;15.18;;;13.57;;
54139;SDS011;40046;53.254;5.900;2022-09-23T01:52:53;13.98;;;10.57;;
54139;SDS011;40046;53.254;5.900;2022-09-23T01:55:26;16.25;;;11.13;;
54139;SDS011;40046;53.254;5.900;2022-09-23T01:58:11;13.85;;;11.82;;
54139;SDS011;40046;53.254;5.900;2022-09-23T02:00:46;12.40;;;10.98;;
54139;SDS011;40046;53.254;5.900;2022-09-23T02:03:16;15.32;;;12.07;;
54139;SDS011;40046;53.254;5.900;2022-09-23T02:05:52;17.48;;;11.93;;
54139;SDS011;40046;53.254;5.900;2022-09-23T02:08:28;13.20;;;11.73;;
54139;SDS011;40046;53.254;5.900;2022-09-23T02:11:09;15.90;;;12.57;;
54139;SDS011;40046;53.254;5.900;2022-09-23T02:13:40;14.00;;;12.05;;
54139;SDS011;40046;53.254;5.900;2022-09-23T02:16:13;19.35;;;13.85;;
54139;SDS011;40046;53.254;5.900;2022-09-23T02:18:48;14.98;;;12.52;;
54139;SDS011;40046;53.254;5.900;2022-09-23T02:21:19;19.05;;;14.95;;
54139;SDS011;40046;53.254;5.900;2022-09-23T02:23:51;17.25;;;13.13;;
54139;SDS011;40046;53.254;5.900;2022-09-23T02:26:31;15.02;;;12.88;;
54139;SDS011;40046;53.254;5.900;2022-09-23T02:29:21;15.55;;;12.73;;
54139;SDS011;40046;53.254;5.900;2022-09-23T02:32:07;17.90;;;14.00;;
54139;SDS011;40046;53.254;5.900;2022-09-23T02:34:45;18.00;;;15.13;;
54139;SDS011;40046;53.254;5.900;2022-09-23T02:37:19;18.88;;;15.40;;
54139;SDS011;40046;53.254;5.900;2022-09-23T02:42:39;21.08;;;15.68;;
54139;SDS011;40046;53.254;5.900;2022-09-23T02:45:14;16.63;;;14.88;;
54139;SDS011;40046;53.254;5.900;2022-09-23T02:47:41;16.92;;;15.02;;
54139;SDS011;40046;53.254;5.900;2022-09-23T02:50:10;17.70;;;14.57;;
54139;SDS011;40046;53.254;5.900;2022-09-23T02:52:36;20.63;;;15.93;;
54139;SDS011;40046;53.254;5.900;2022-09-23T02:55:03;18.98;;;15.48;;
54139;SDS011;40046;53.254;5.900;2022-09-23T02:57:32;18.88;;;15.20;;
54139;SDS011;40046;53.254;5.900;2022-09-23T02:59:58;19.98;;;15.35;;
54139;SDS011;40046;53.254;5.900;2022-09-23T03:05:26;19.27;;;14.95;;
54139;SDS011;40046;53.254;5.900;2022-09-23T03:11:06;21.73;;;16.80;;
54139;SDS011;40046;53.254;5.900;2022-09-23T03:13:51;17.20;;;15.40;;
54139;SDS011;40046;53.254;5.900;2022-09-23T03:24:20;19.67;;;16.38;;
54139;SDS011;40046;53.254;5.900;2022-09-23T03:26:48;18.67;;;15.80;;
54139;SDS011;40046;53.254;5.900;2022-09-23T03:29:16;19.30;;;16.10;;
54139;SDS011;40046;53.254;5.900;2022-09-23T03:31:44;20.88;;;16.40;;
54139;SDS011;40046;53.254;5.900;2022-09-23T03:34:15;20.58;;;15.98;;
54139;SDS011;40046;53.254;5.900;2022-09-23T03:36:51;22.08;;;18.05;;
54139;SDS011;40046;53.254;5.900;2022-09-23T03:39:35;19.40;;;16.70;;
54139;SDS011;40046;53.254;5.900;2022-09-23T03:42:15;21.65;;;18.52;;
54139;SDS011;40046;53.254;5.900;2022-09-23T03:44:45;20.27;;;16.95;;
54139;SDS011;40046;53.254;5.900;2022-09-23T03:47:13;26.17;;;17.40;;
54139;SDS011;40046;53.254;5.900;2022-09-23T03:49:41;19.50;;;16.45;;
54139;SDS011;40046;53.254;5.900;2022-09-23T03:52:10;19.42;;;16.85;;
54139;SDS011;40046;53.254;5.900;2022-09-23T03:54:36;20.10;;;18.10;;
54139;SDS011;40046;53.254;5.900;2022-09-23T03:57:01;24.48;;;17.45;;
54139;SDS011;40046;53.254;5.900;2022-09-23T03:59:27;22.83;;;18.60;;
54139;SDS011;40046;53.254;5.900;2022-09-23T04:01:58;24.75;;;18.25;;
54139;SDS011;40046;53.254;5.900;2022-09-23T04:04:25;18.83;;;16.05;;
54139;SDS011;40046;53.254;5.900;2022-09-23T04:06:56;20.10;;;16.50;;
54139;SDS011;40046;53.254;5.900;2022-09-23T04:09:22;20.17;;;17.42;;
54139;SDS011;40046;53.254;5.900;2022-09-23T04:11:49;20.65;;;17.33;;
54139;SDS011;40046;53.254;5.900;2022-09-23T04:14:15;22.70;;;18.38;;
54139;SDS011;40046;53.254;5.900;2022-09-23T04:16:41;22.83;;;18.65;;
54139;SDS011;40046;53.254;5.900;2022-09-23T04:19:08;22.13;;;18.73;;
54139;SDS011;40046;53.254;5.900;2022-09-23T04:21:34;22.70;;;17.80;;
54139;SDS011;40046;53.254;5.900;2022-09-23T04:24:00;22.25;;;18.08;;
54139;SDS011;40046;53.254;5.900;2022-09-23T04:26:26;18.30;;;16.40;;
54139;SDS011;40046;53.254;5.900;2022-09-23T04:28:53;20.10;;;16.23;;
54139;SDS011;40046;53.254;5.900;2022-09-23T04:31:19;20.88;;;16.98;;
54139;SDS011;40046;53.254;5.900;2022-09-23T04:33:46;22.35;;;18.40;;
54139;SDS011;40046;53.254;5.900;2022-09-23T04:36:12;22.20;;;16.95;;
54139;SDS011;40046;53.254;5.900;2022-09-23T04:38:37;20.13;;;16.83;;
54139;SDS011;40046;53.254;5.900;2022-09-23T04:41:06;21.05;;;17.08;;
54139;SDS011;40046;53.254;5.900;2022-09-23T04:43:33;20.60;;;16.10;;
54139;SDS011;40046;53.254;5.900;2022-09-23T04:46:00;21.05;;;16.90;;
54139;SDS011;40046;53.254;5.900;2022-09-23T04:48:27;21.73;;;17.30;;
54139;SDS011;40046;53.254;5.900;2022-09-23T04:50:53;27.75;;;18.40;;
54139;SDS011;40046;53.254;5.900;2022-09-23T04:53:26;23.23;;;18.30;;
54139;SDS011;40046;53.254;5.900;2022-09-23T04:55:53;21.55;;;16.88;;
54139;SDS011;40046;53.254;5.900;2022-09-23T04:58:19;21.75;;;16.90;;
54139;SDS011;40046;53.254;5.900;2022-09-23T05:00:47;20.92;;;17.55;;
54139;SDS011;40046;53.254;5.900;2022-09-23T05:03:13;21.17;;;17.08;;
54139;SDS011;40046;53.254;5.900;2022-09-23T05:05:39;20.98;;;16.95;;
54139;SDS011;40046;53.254;5.900;2022-09-23T05:08:05;21.52;;;16.92;;
54139;SDS011;40046;53.254;5.900;2022-09-23T05:10:31;20.63;;;17.45;;
54139;SDS011;40046;53.254;5.900;2022-09-23T05:12:57;21.25;;;17.77;;
54139;SDS011;40046;53.254;5.900;2022-09-23T05:15:23;21.02;;;17.55;;
54139;SDS011;40046;53.254;5.900;2022-09-23T05:17:49;20.17;;;17.02;;
54139;SDS011;40046;53.254;5.900;2022-09-23T05:20:14;22.08;;;18.27;;
54139;SDS011;40046;53.254;5.900;2022-09-23T05:22:41;24.08;;;17.58;;
54139;SDS011;40046;53.254;5.900;2022-09-23T05:25:07;22.63;;;17.33;;
54139;SDS011;40046;53.254;5.900;2022-09-23T05:27:33;22.35;;;17.13;;
54139;SDS011;40046;53.254;5.900;2022-09-23T05:29:58;18.75;;;16.48;;
54139;SDS011;40046;53.254;5.900;2022-09-23T05:32:25;24.95;;;17.02;;
54139;SDS011;40046;53.254;5.900;2022-09-23T05:34:50;19.73;;;16.77;;
54139;SDS011;40046;53.254;5.900;2022-09-23T05:37:18;22.73;;;18.38;;
54139;SDS011;40046;53.254;5.900;2022-09-23T05:39:44;19.80;;;16.92;;
54139;SDS011;40046;53.254;5.900;2022-09-23T05:42:10;18.67;;;16.35;;
54139;SDS011;40046;53.254;5.900;2022-09-23T05:44:36;20.55;;;17.10;;
54139;SDS011;40046;53.254;5.900;2022-09-23T05:47:03;22.65;;;15.88;;
54139;SDS011;40046;53.254;5.900;2022-09-23T05:49:29;22.02;;;17.73;;
54139;SDS011;40046;53.254;5.900;2022-09-23T05:51:55;24.73;;;17.40;;
54139;SDS011;40046;53.254;5.900;2022-09-23T05:54:21;22.58;;;18.00;;
54139;SDS011;40046;53.254;5.900;2022-09-23T05:56:46;22.52;;;16.40;;
54139;SDS011;40046;53.254;5.900;2022-09-23T05:59:12;22.05;;;17.45;;
54139;SDS011;40046;53.254;5.900;2022-09-23T06:01:38;20.58;;;16.90;;
54139;SDS011;40046;53.254;5.900;2022-09-23T06:04:05;17.95;;;15.68;;
54139;SDS011;40046;53.254;5.900;2022-09-23T06:06:33;23.00;;;16.73;;
54139;SDS011;40046;53.254;5.900;2022-09-23T06:09:04;20.35;;;16.90;;
54139;SDS011;40046;53.254;5.900;2022-09-23T06:11:31;20.75;;;16.77;;
54139;SDS011;40046;53.254;5.900;2022-09-23T06:13:58;19.63;;;16.17;;
54139;SDS011;40046;53.254;5.900;2022-09-23T06:16:26;19.42;;;15.70;;
54139;SDS011;40046;53.254;5.900;2022-09-23T06:18:57;21.33;;;16.38;;
54139;SDS011;40046;53.254;5.900;2022-09-23T06:21:25;18.77;;;14.90;;
54139;SDS011;40046;53.254;5.900;2022-09-23T06:23:51;22.63;;;16.30;;
54139;SDS011;40046;53.254;5.900;2022-09-23T06:26:17;19.05;;;14.73;;
54139;SDS011;40046;53.254;5.900;2022-09-23T06:28:43;19.52;;;15.73;;
54139;SDS011;40046;53.254;5.900;2022-09-23T06:31:10;18.50;;;14.65;;
54139;SDS011;40046;53.254;5.900;2022-09-23T06:33:37;18.13;;;15.18;;
54139;SDS011;40046;53.254;5.900;2022-09-23T06:36:04;19.85;;;15.38;;
54139;SDS011;40046;53.254;5.900;2022-09-23T06:38:31;21.38;;;14.85;;
54139;SDS011;40046;53.254;5.900;2022-09-23T06:41:00;18.77;;;15.18;;
54139;SDS011;40046;53.254;5.900;2022-09-23T06:43:27;16.65;;;14.93;;
54139;SDS011;40046;53.254;5.900;2022-09-23T06:48:20;16.38;;;14.27;;
54139;SDS011;40046;53.254;5.900;2022-09-23T06:50:46;17.92;;;15.35;;
54139;SDS011;40046;53.254;5.900;2022-09-23T06:53:16;17.40;;;14.68;;
54139;SDS011;40046;53.254;5.900;2022-09-23T06:55:42;16.10;;;14.20;;
54139;SDS011;40046;53.254;5.900;2022-09-23T06:58:08;15.88;;;14.13;;
54139;SDS011;40046;53.254;5.900;2022-09-23T07:00:34;16.02;;;13.23;;
54139;SDS011;40046;53.254;5.900;2022-09-23T07:03:00;17.65;;;14.10;;
54139;SDS011;40046;53.254;5.900;2022-09-23T07:05:30;17.00;;;13.95;;
54139;SDS011;40046;53.254;5.900;2022-09-23T07:07:56;15.32;;;13.68;;
54139;SDS011;40046;53.254;5.900;2022-09-23T07:10:22;16.85;;;13.55;;
54139;SDS011;40046;53.254;5.900;2022-09-23T07:12:48;18.48;;;14.00;;
54139;SDS011;40046;53.254;5.900;2022-09-23T07:15:13;15.07;;;12.20;;
54139;SDS011;40046;53.254;5.900;2022-09-23T07:17:41;15.57;;;13.32;;
54139;SDS011;40046;53.254;5.900;2022-09-23T07:20:07;14.13;;;12.40;;
54139;SDS011;40046;53.254;5.900;2022-09-23T07:22:36;17.08;;;12.25;;
54139;SDS011;40046;53.254;5.900;2022-09-23T07:25:02;14.82;;;11.63;;
54139;SDS011;40046;53.254;5.900;2022-09-23T07:27:28;16.20;;;12.75;;
54139;SDS011;40046;53.254;5.900;2022-09-23T07:29:54;15.95;;;13.02;;
54139;SDS011;40046;53.254;5.900;2022-09-23T07:32:20;15.90;;;12.50;;
54139;SDS011;40046;53.254;5.900;2022-09-23T07:34:47;13.20;;;11.40;;
54139;SDS011;40046;53.254;5.900;2022-09-23T07:37:13;15.43;;;13.15;;
54139;SDS011;40046;53.254;5.900;2022-09-23T07:39:41;18.42;;;13.43;;
54139;SDS011;40046;53.254;5.900;2022-09-23T07:42:07;17.65;;;11.75;;
54139;SDS011;40046;53.254;5.900;2022-09-23T07:44:36;14.57;;;12.32;;
54139;SDS011;40046;53.254;5.900;2022-09-23T07:47:01;16.83;;;13.82;;
54139;SDS011;40046;53.254;5.900;2022-09-23T07:49:28;14.45;;;11.68;;
54139;SDS011;40046;53.254;5.900;2022-09-23T07:51:53;17.88;;;13.68;;
54139;SDS011;40046;53.254;5.900;2022-09-23T07:54:19;13.35;;;11.88;;
54139;SDS011;40046;53.254;5.900;2022-09-23T07:56:45;19.52;;;13.35;;
54139;SDS011;40046;53.254;5.900;2022-09-23T07:59:13;13.02;;;11.73;;
54139;SDS011;40046;53.254;5.900;2022-09-23T08:01:42;14.25;;;12.38;;
54139;SDS011;40046;53.254;5.900;2022-09-23T08:04:11;15.57;;;13.05;;
54139;SDS011;40046;53.254;5.900;2022-09-23T08:06:40;15.32;;;12.25;;
54139;SDS011;40046;53.254;5.900;2022-09-23T08:09:07;19.55;;;13.73;;
54139;SDS011;40046;53.254;5.900;2022-09-23T08:11:34;17.00;;;13.70;;
54139;SDS011;40046;53.254;5.900;2022-09-23T08:14:09;16.85;;;11.75;;
54139;SDS011;40046;53.254;5.900;2022-09-23T08:16:37;14.35;;;11.48;;
54139;SDS011;40046;53.254;5.900;2022-09-23T08:19:04;13.88;;;11.93;;
54139;SDS011;40046;53.254;5.900;2022-09-23T08:21:31;15.52;;;11.45;;
54139;SDS011;40046;53.254;5.900;2022-09-23T08:23:57;12.70;;;10.20;;
54139;SDS011;40046;53.254;5.900;2022-09-23T08:26:22;17.60;;;12.07;;
54139;SDS011;40046;53.254;5.900;2022-09-23T08:28:49;14.70;;;12.43;;
54139;SDS011;40046;53.254;5.900;2022-09-23T08:31:18;14.02;;;11.23;;
54139;SDS011;40046;53.254;5.900;2022-09-23T08:33:44;14.35;;;11.90;;
54139;SDS011;40046;53.254;5.900;2022-09-23T08:36:10;14.52;;;11.73;;
54139;SDS011;40046;53.254;5.900;2022-09-23T08:38:36;14.00;;;10.75;;
54139;SDS011;40046;53.254;5.900;2022-09-23T08:41:26;15.90;;;11.02;;
54139;SDS011;40046;53.254;5.900;2022-09-23T08:43:55;13.20;;;11.60;;
54139;SDS011;40046;53.254;5.900;2022-09-23T08:46:29;18.20;;;12.38;;
54139;SDS011;40046;53.254;5.900;2022-09-23T08:49:00;14.95;;;11.75;;
54139;SDS011;40046;53.254;5.900;2022-09-23T08:51:34;19.30;;;11.98;;
54139;SDS011;40046;53.254;5.900;2022-09-23T08:54:06;12.25;;;10.80;;
54139;SDS011;40046;53.254;5.900;2022-09-23T08:56:37;14.27;;;10.90;;
54139;SDS011;40046;53.254;5.900;2022-09-23T08:59:05;15.23;;;11.75;;
54139;SDS011;40046;53.254;5.900;2022-09-23T09:07:13;14.38;;;11.88;;
54139;SDS011;40046;53.254;5.900;2022-09-23T09:17:38;16.05;;;11.93;;
54139;SDS011;40046;53.254;5.900;2022-09-23T09:22:54;15.30;;;11.93;;
54139;SDS011;40046;53.254;5.900;2022-09-23T09:28:19;14.70;;;12.50;;
54139;SDS011;40046;53.254;5.900;2022-09-23T09:31:14;19.40;;;12.85;;
54139;SDS011;40046;53.254;5.900;2022-09-23T09:37:02;14.95;;;12.35;;
54139;SDS011;40046;53.254;5.900;2022-09-23T09:39:33;14.20;;;12.70;;
54139;SDS011;40046;53.254;5.900;2022-09-23T09:41:59;14.95;;;12.02;;
54139;SDS011;40046;53.254;5.900;2022-09-23T09:44:36;17.30;;;12.35;;
54139;SDS011;40046;53.254;5.900;2022-09-23T09:47:09;14.70;;;12.60;;
54139;SDS011;40046;53.254;5.900;2022-09-23T09:49:54;12.45;;;11.15;;
54139;SDS011;40046;53.254;5.900;2022-09-23T09:52:45;14.50;;;11.90;;
54139;SDS011;40046;53.254;5.900;2022-09-23T09:55:24;13.77;;;11.88;;
54139;SDS011;40046;53.254;5.900;2022-09-23T09:57:56;14.48;;;11.75;;
54139;SDS011;40046;53.254;5.900;2022-09-23T10:02:55;12.93;;;11.27;;
54139;SDS011;40046;53.254;5.900;2022-09-23T10:05:32;17.45;;;10.73;;
54139;SDS011;40046;53.254;5.900;2022-09-23T10:08:31;13.68;;;12.25;;
54139;SDS011;40046;53.254;5.900;2022-09-23T10:13:41;14.00;;;11.05;;
54139;SDS011;40046;53.254;5.900;2022-09-23T10:16:26;15.50;;;11.93;;
54139;SDS011;40046;53.254;5.900;2022-09-23T10:18:54;15.45;;;11.60;;
54139;SDS011;40046;53.254;5.900;2022-09-23T10:21:22;15.90;;;11.98;;
54139;SDS011;40046;53.254;5.900;2022-09-23T10:23:50;14.38;;;12.10;;
54139;SDS011;40046;53.254;5.900;2022-09-23T10:26:41;13.33;;;10.50;;
54139;SDS011;40046;53.254;5.900;2022-09-23T10:29:29;13.52;;;10.65;;
54139;SDS011;40046;53.254;5.900;2022-09-23T10:32:11;22.83;;;12.88;;
54139;SDS011;40046;53.254;5.900;2022-09-23T10:40:11;13.27;;;11.30;;
54139;SDS011;40046;53.254;5.900;2022-09-23T10:43:18;15.10;;;10.80;;
54139;SDS011;40046;53.254;5.900;2022-09-23T10:52:14;14.57;;;11.27;;
54139;SDS011;40046;53.254;5.900;2022-09-23T10:57:45;15.68;;;11.98;;
54139;SDS011;40046;53.254;5.900;2022-09-23T11:05:26;14.15;;;12.40;;
54139;SDS011;40046;53.254;5.900;2022-09-23T11:08:05;15.90;;;11.93;;
54139;SDS011;40046;53.254;5.900;2022-09-23T11:10:59;16.45;;;13.35;;
54139;SDS011;40046;53.254;5.900;2022-09-23T11:25:12;14.70;;;12.80;;
54139;SDS011;40046;53.254;5.900;2022-09-23T11:30:37;18.60;;;14.35;;
54139;SDS011;40046;53.254;5.900;2022-09-23T11:36:10;15.53;;;13.33;;
54139;SDS011;40046;53.254;5.900;2022-09-23T11:38:49;18.15;;;13.20;;
54139;SDS011;40046;53.254;5.900;2022-09-23T11:41:23;19.63;;;14.73;;
54139;SDS011;40046;53.254;5.900;2022-09-23T11:43:53;16.65;;;14.40;;
54139;SDS011;40046;53.254;5.900;2022-09-23T11:49:18;17.90;;;14.95;;
54139;SDS011;40046;53.254;5.900;2022-09-23T11:54:51;19.48;;;15.77;;
54139;SDS011;40046;53.254;5.900;2022-09-23T12:00:21;17.20;;;14.68;;
54139;SDS011;40046;53.254;5.900;2022-09-23T12:02:52;17.85;;;16.05;;
54139;SDS011;40046;53.254;5.900;2022-09-23T12:05:44;17.98;;;14.48;;
54139;SDS011;40046;53.254;5.900;2022-09-23T12:19:35;19.63;;;16.67;;
54139;SDS011;40046;53.254;5.900;2022-09-23T12:30:42;22.27;;;18.13;;
54139;SDS011;40046;53.254;5.900;2022-09-23T12:33:21;22.05;;;19.25;;
54139;SDS011;40046;53.254;5.900;2022-09-23T12:38:40;22.60;;;18.73;;
54139;SDS011;40046;53.254;5.900;2022-09-23T12:46:37;21.45;;;19.17;;
54139;SDS011;40046;53.254;5.900;2022-09-23T12:54:35;21.48;;;17.88;;
54139;SDS011;40046;53.254;5.900;2022-09-23T12:57:03;20.90;;;18.65;;
54139;SDS011;40046;53.254;5.900;2022-09-23T13:02:27;20.35;;;16.75;;
54139;SDS011;40046;53.254;5.900;2022-09-23T13:04:55;22.55;;;18.85;;
54139;SDS011;40046;53.254;5.900;2022-09-23T13:08:01;20.48;;;18.27;;
54139;SDS011;40046;53.254;5.900;2022-09-23T13:10:36;21.38;;;19.20;;
54139;SDS011;40046;53.254;5.900;2022-09-23T13:13:19;21.27;;;18.95;;
54139;SDS011;40046;53.254;5.900;2022-09-23T13:15:49;23.23;;;20.48;;
54139;SDS011;40046;53.254;5.900;2022-09-23T13:20:43;22.75;;;20.20;;
54139;SDS011;40046;53.254;5.900;2022-09-23T13:25:53;23.45;;;21.08;;
54139;SDS011;40046;53.254;5.900;2022-09-23T13:31:15;23.30;;;19.50;;
54139;SDS011;40046;53.254;5.900;2022-09-23T13:33:47;23.95;;;21.25;;
54139;SDS011;40046;53.254;5.900;2022-09-23T13:36:17;29.02;;;21.58;;
54139;SDS011;40046;53.254;5.900;2022-09-23T13:38:44;26.60;;;22.10;;
54139;SDS011;40046;53.254;5.900;2022-09-23T13:41:18;24.85;;;22.13;;
54139;SDS011;40046;53.254;5.900;2022-09-23T13:43:56;25.17;;;22.58;;
54139;SDS011;40046;53.254;5.900;2022-09-23T13:46:29;26.63;;;23.83;;
54139;SDS011;40046;53.254;5.900;2022-09-23T13:49:03;25.80;;;22.17;;
54139;SDS011;40046;53.254;5.900;2022-09-23T13:51:33;23.90;;;21.52;;
54139;SDS011;40046;53.254;5.900;2022-09-23T13:54:00;22.73;;;20.33;;
54139;SDS011;40046;53.254;5.900;2022-09-23T13:56:29;28.95;;;21.60;;
54139;SDS011;40046;53.254;5.900;2022-09-23T14:01:43;24.58;;;21.98;;
54139;SDS011;40046;53.254;5.900;2022-09-23T14:04:23;25.33;;;22.50;;
54139;SDS011;40046;53.254;5.900;2022-09-23T14:06:49;24.98;;;22.27;;
54139;SDS011;40046;53.254;5.900;2022-09-23T14:09:16;27.25;;;22.25;;
54139;SDS011;40046;53.254;5.900;2022-09-23T14:11:42;24.13;;;21.65;;
54139;SDS011;40046;53.254;5.900;2022-09-23T14:14:11;25.98;;;23.27;;
54139;SDS011;40046;53.254;5.900;2022-09-23T14:16:39;26.55;;;22.83;;
54139;SDS011;40046;53.254;5.900;2022-09-23T14:19:06;26.08;;;22.45;;
54139;SDS011;40046;53.254;5.900;2022-09-23T14:21:41;29.50;;;22.85;;
54139;SDS011;40046;53.254;5.900;2022-09-23T14:24:15;27.02;;;22.27;;
54139;SDS011;40046;53.254;5.900;2022-09-23T14:26:53;29.08;;;22.05;;
54139;SDS011;40046;53.254;5.900;2022-09-23T14:29:27;25.25;;;22.55;;
54139;SDS011;40046;53.254;5.900;2022-09-23T14:32:09;24.70;;;21.02;;
54139;SDS011;40046;53.254;5.900;2022-09-23T14:40:16;23.25;;;20.85;;
54139;SDS011;40046;53.254;5.900;2022-09-23T14:42:48;23.33;;;20.92;;
54139;SDS011;40046;53.254;5.900;2022-09-23T14:45:18;25.40;;;22.63;;
54139;SDS011;40046;53.254;5.900;2022-09-23T14:47:47;25.38;;;21.42;;
54139;SDS011;40046;53.254;5.900;2022-09-23T14:50:20;24.98;;;22.30;;
54139;SDS011;40046;53.254;5.900;2022-09-23T14:55:45;25.60;;;21.25;;
54139;SDS011;40046;53.254;5.900;2022-09-23T14:58:15;24.88;;;21.38;;
54139;SDS011;40046;53.254;5.900;2022-09-23T15:03:22;26.45;;;20.75;;
54139;SDS011;40046;53.254;5.900;2022-09-23T15:05:49;28.63;;;22.00;;
54139;SDS011;40046;53.254;5.900;2022-09-23T15:10:50;23.48;;;20.73;;
54139;SDS011;40046;53.254;5.900;2022-09-23T15:13:17;22.00;;;18.95;;
54139;SDS011;40046;53.254;5.900;2022-09-23T15:15:46;23.95;;;19.98;;
54139;SDS011;40046;53.254;5.900;2022-09-23T15:18:34;25.77;;;19.88;;
54139;SDS011;40046;53.254;5.900;2022-09-23T15:23:49;24.42;;;21.70;;
54139;SDS011;40046;53.254;5.900;2022-09-23T15:29:06;22.92;;;20.52;;
54139;SDS011;40046;53.254;5.900;2022-09-23T15:31:33;22.48;;;20.05;;
54139;SDS011;40046;53.254;5.900;2022-09-23T15:34:01;25.15;;;21.70;;
54139;SDS011;40046;53.254;5.900;2022-09-23T15:36:29;23.05;;;20.52;;
54139;SDS011;40046;53.254;5.900;2022-09-23T15:39:02;23.08;;;20.45;;
54139;SDS011;40046;53.254;5.900;2022-09-23T15:41:30;26.13;;;22.80;;
54139;SDS011;40046;53.254;5.900;2022-09-23T15:44:00;23.90;;;21.33;;
54139;SDS011;40046;53.254;5.900;2022-09-23T15:46:38;25.13;;;20.23;;
54139;SDS011;40046;53.254;5.900;2022-09-23T15:49:13;23.52;;;21.00;;
54139;SDS011;40046;53.254;5.900;2022-09-23T15:51:50;25.05;;;22.27;;
54139;SDS011;40046;53.254;5.900;2022-09-23T15:54:16;24.23;;;21.63;;
54139;SDS011;40046;53.254;5.900;2022-09-23T15:56:43;26.13;;;20.88;;
54139;SDS011;40046;53.254;5.900;2022-09-23T15:59:09;24.30;;;21.83;;
54139;SDS011;40046;53.254;5.900;2022-09-23T16:01:36;26.35;;;22.17;;
54139;SDS011;40046;53.254;5.900;2022-09-23T16:04:03;26.52;;;23.42;;
54139;SDS011;40046;53.254;5.900;2022-09-23T16:06:31;26.35;;;22.45;;
54139;SDS011;40046;53.254;5.900;2022-09-23T16:09:00;30.15;;;25.35;;
54139;SDS011;40046;53.254;5.900;2022-09-23T16:11:26;26.48;;;23.65;;
54139;SDS011;40046;53.254;5.900;2022-09-23T16:13:56;29.88;;;26.30;;
54139;SDS011;40046;53.254;5.900;2022-09-23T16:16:22;31.75;;;27.02;;
54139;SDS011;40046;53.254;5.900;2022-09-23T16:18:48;32.05;;;27.90;;
54139;SDS011;40046;53.254;5.900;2022-09-23T16:21:18;36.20;;;32.13;;
54139;SDS011;40046;53.254;5.900;2022-09-23T16:23:46;33.80;;;26.83;;
54139;SDS011;40046;53.254;5.900;2022-09-23T16:28:54;24.88;;;22.20;;
54139;SDS011;40046;53.254;5.900;2022-09-23T16:31:21;27.70;;;22.50;;
54139;SDS011;40046;53.254;5.900;2022-09-23T16:33:49;25.60;;;22.27;;
54139;SDS011;40046;53.254;5.900;2022-09-23T16:36:23;27.15;;;22.63;;
54139;SDS011;40046;53.254;5.900;2022-09-23T16:38:51;33.60;;;25.23;;
54139;SDS011;40046;53.254;5.900;2022-09-23T16:41:21;29.48;;;22.55;;
54139;SDS011;40046;53.254;5.900;2022-09-23T16:43:48;25.90;;;22.77;;
54139;SDS011;40046;53.254;5.900;2022-09-23T16:46:15;25.98;;;23.23;;
54139;SDS011;40046;53.254;5.900;2022-09-23T16:48:42;24.13;;;21.52;;
54139;SDS011;40046;53.254;5.900;2022-09-23T16:51:12;27.27;;;23.50;;
54139;SDS011;40046;53.254;5.900;2022-09-23T16:53:40;24.00;;;21.38;;
54139;SDS011;40046;53.254;5.900;2022-09-23T16:56:07;27.23;;;24.33;;
54139;SDS011;40046;53.254;5.900;2022-09-23T16:58:34;26.52;;;22.80;;
54139;SDS011;40046;53.254;5.900;2022-09-23T17:01:00;26.92;;;20.73;;
54139;SDS011;40046;53.254;5.900;2022-09-23T17:03:45;29.10;;;24.20;;
54139;SDS011;40046;53.254;5.900;2022-09-23T17:06:11;25.38;;;22.38;;
54139;SDS011;40046;53.254;5.900;2022-09-23T17:08:38;24.63;;;21.08;;
54139;SDS011;40046;53.254;5.900;2022-09-23T17:11:09;27.90;;;24.77;;
54139;SDS011;40046;53.254;5.900;2022-09-23T17:13:35;26.80;;;23.17;;
54139;SDS011;40046;53.254;5.900;2022-09-23T17:16:01;25.73;;;22.15;;
54139;SDS011;40046;53.254;5.900;2022-09-23T17:18:27;27.40;;;22.70;;
54139;SDS011;40046;53.254;5.900;2022-09-23T17:20:57;27.52;;;24.58;;
54139;SDS011;40046;53.254;5.900;2022-09-23T17:23:24;25.65;;;22.42;;
54139;SDS011;40046;53.254;5.900;2022-09-23T17:25:51;28.70;;;23.30;;
54139;SDS011;40046;53.254;5.900;2022-09-23T17:28:17;30.05;;;22.85;;
54139;SDS011;40046;53.254;5.900;2022-09-23T17:30:42;25.23;;;21.88;;
54139;SDS011;40046;53.254;5.900;2022-09-23T17:33:08;26.52;;;23.15;;
54139;SDS011;40046;53.254;5.900;2022-09-23T17:35:38;28.85;;;24.95;;
54139;SDS011;40046;53.254;5.900;2022-09-23T17:38:04;27.55;;;24.27;;
54139;SDS011;40046;53.254;5.900;2022-09-23T17:40:30;29.02;;;25.85;;
54139;SDS011;40046;53.254;5.900;2022-09-23T17:42:56;29.67;;;24.20;;